createdAt,value
2022-11-18T00:01:39.806Z,97219.81
2022-11-18T00:04:06.525Z,97216.06
2022-11-18T00:06:33.214Z,97216.72
2022-11-18T00:09:01.112Z,97218.84
2022-11-18T00:11:47.094Z,97220.81
2022-11-18T00:14:19.245Z,97213.97
2022-11-18T00:16:48.224Z,97216.72
2022-11-18T00:19:15.566Z,97219.19
2022-11-18T00:21:42.867Z,97215.09
2022-11-18T00:24:09.774Z,97215.91
2022-11-18T00:26:36.729Z,97212.81
2022-11-18T00:29:03.967Z,97213.94
2022-11-18T00:31:30.839Z,97218.16
2022-11-18T00:33:57.696Z,97209.03
2022-11-18T00:36:24.495Z,97207.25
2022-11-18T00:38:51.211Z,97212.28
2022-11-18T00:41:18.127Z,97212.63
2022-11-18T00:43:45.058Z,97214.56
2022-11-18T00:46:13.258Z,97208.72
2022-11-18T00:48:40.545Z,97205.59
2022-11-18T00:51:16.668Z,97195.16
2022-11-18T00:53:43.655Z,97197.91
2022-11-18T00:56:10.945Z,97198.28
2022-11-18T00:58:38.159Z,97196.97
2022-11-18T01:01:05.496Z,97195.97
2022-11-18T01:03:32.362Z,97195.63
2022-11-18T01:05:59.046Z,97206.06
2022-11-18T01:08:26.178Z,97202.63
2022-11-18T01:10:54.043Z,97205.25
2022-11-18T01:13:23.339Z,97203.09
2022-11-18T01:15:55.099Z,97209.78
2022-11-18T01:18:24.288Z,97211.78
2022-11-18T01:20:51.100Z,97204.41
2022-11-18T01:23:19.269Z,97209.59
2022-11-18T01:25:48.447Z,97209.63
2022-11-18T01:28:21.967Z,97215.06
2022-11-18T01:30:49.902Z,97208.16
2022-11-18T01:33:16.564Z,97215.19
2022-11-18T01:35:44.135Z,97220.91
2022-11-18T01:38:12.783Z,97223.53
2022-11-18T01:40:40.305Z,97223.34
2022-11-18T01:43:13.190Z,97219.75
2022-11-18T01:45:41.540Z,97218.59
2022-11-18T01:48:32.475Z,97222.34
2022-11-18T01:51:06.915Z,97225.44
2022-11-18T01:53:37.976Z,97221.34
2022-11-18T01:56:08.844Z,97224.59
2022-11-18T01:58:42.157Z,97235.50
2022-11-18T02:01:09.339Z,97222.34
2022-11-18T02:03:36.429Z,97228.19
2022-11-18T02:06:05.707Z,97219.38
2022-11-18T02:08:33.037Z,97225.56
2022-11-18T02:10:59.763Z,97218.56
2022-11-18T02:13:26.537Z,97223.91
2022-11-18T02:16:15.914Z,97226.88
2022-11-18T02:19:04.477Z,97240.25
2022-11-18T02:22:23.503Z,97243.81
2022-11-18T02:24:59.851Z,97241.75
2022-11-18T02:27:36.610Z,97240.09
2022-11-18T02:30:11.092Z,97249.72
2022-11-18T02:33:02.690Z,97251.03
2022-11-18T02:35:47.260Z,97241.41
2022-11-18T02:38:15.998Z,97243.19
2022-11-18T02:40:54.012Z,97249.56
2022-11-18T02:43:28.138Z,97238.78
2022-11-18T02:45:57.840Z,97247.75
2022-11-18T02:48:26.515Z,97240.56
2022-11-18T02:50:53.895Z,97240.06
2022-11-18T02:53:21.852Z,97245.44
2022-11-18T02:55:49.746Z,97237.44
2022-11-18T02:58:18.290Z,97244.13
2022-11-18T03:00:45.132Z,97243.97
2022-11-18T03:03:31.826Z,97246.38
2022-11-18T03:06:24.952Z,97247.72
2022-11-18T03:09:29.011Z,97258.19
2022-11-18T03:12:22.080Z,97263.41
2022-11-18T03:15:20.788Z,97261.09
2022-11-18T03:18:28.436Z,97268.94
2022-11-18T03:21:08.492Z,97263.78
2022-11-18T03:23:55.539Z,97251.34
2022-11-18T03:26:30.223Z,97260.13
2022-11-18T03:29:05.147Z,97258.56
2022-11-18T03:31:54.866Z,97258.56
2022-11-18T03:34:27.786Z,97265.72
2022-11-18T03:37:00.697Z,97260.97
2022-11-18T03:39:31.014Z,97264.41
2022-11-18T03:42:18.274Z,97282.41
2022-11-18T03:44:52.668Z,97286.66
2022-11-18T03:47:32.054Z,97292.19
2022-11-18T03:50:12.878Z,97295.59
2022-11-18T03:52:40.132Z,97289.88
2022-11-18T03:55:12.874Z,97293.78
2022-11-18T03:57:44.395Z,97293.63
2022-11-18T04:00:13.805Z,97302.25
2022-11-18T04:02:40.768Z,97297.84
2022-11-18T04:05:11.092Z,97306.19
2022-11-18T04:07:43.291Z,97295.75
2022-11-18T04:10:32.483Z,97301.94
2022-11-18T04:13:06.974Z,97306.69
2022-11-18T04:15:37.311Z,97302.13
2022-11-18T04:18:04.178Z,97299.31
2022-11-18T04:20:32.678Z,97305.53
2022-11-18T04:22:59.952Z,97301.94
2022-11-18T04:25:26.779Z,97302.44
2022-11-18T04:27:53.447Z,97304.88
2022-11-18T04:30:20.233Z,97308.81
2022-11-18T04:32:47.247Z,97311.25
2022-11-18T04:35:14.541Z,97311.13
2022-11-18T04:37:41.389Z,97311.75
2022-11-18T04:40:09.250Z,97322.06
2022-11-18T04:42:36.121Z,97329.69
2022-11-18T04:47:42.267Z,97329.53
2022-11-18T04:50:09.530Z,97333.44
2022-11-18T04:52:36.340Z,97327.88
2022-11-18T04:55:03.154Z,97336.84
2022-11-18T04:57:29.847Z,97344.06
2022-11-18T04:59:56.677Z,97336.22
2022-11-18T05:02:23.501Z,97339.00
2022-11-18T05:04:50.212Z,97345.84
2022-11-18T05:07:16.973Z,97346.00
2022-11-18T05:09:43.814Z,97345.38
2022-11-18T05:12:33.304Z,97346.00
2022-11-18T05:15:00.822Z,97348.09
2022-11-18T05:17:27.615Z,97355.78
2022-11-18T05:19:54.586Z,97346.63
2022-11-18T05:22:21.300Z,97349.88
2022-11-18T05:24:48.091Z,97348.41
2022-11-18T05:27:15.499Z,97347.31
2022-11-18T05:29:42.439Z,97349.75
2022-11-18T05:32:09.329Z,97357.09
2022-11-18T05:34:36.029Z,97354.31
2022-11-18T05:37:03.083Z,97355.78
2022-11-18T05:39:30.020Z,97369.84
2022-11-18T05:42:15.556Z,97373.78
2022-11-18T05:44:42.338Z,97369.50
2022-11-18T05:47:09.174Z,97364.94
2022-11-18T05:49:36.043Z,97369.00
2022-11-18T05:52:02.982Z,97365.94
2022-11-18T05:54:30.033Z,97363.94
2022-11-18T05:56:56.863Z,97373.94
2022-11-18T05:59:23.629Z,97373.88
2022-11-18T06:02:02.444Z,97372.38
2022-11-18T06:04:36.876Z,97366.88
2022-11-18T06:07:08.135Z,97375.41
2022-11-18T06:09:38.545Z,97378.53
2022-11-18T06:12:06.125Z,97381.00
2022-11-18T06:14:44.944Z,97381.94
2022-11-18T06:17:24.055Z,97382.19
2022-11-18T06:19:51.013Z,97389.78
2022-11-18T06:22:17.817Z,97388.06
2022-11-18T06:24:44.661Z,97394.81
2022-11-18T06:27:11.935Z,97398.94
2022-11-18T06:29:38.680Z,97401.91
2022-11-18T06:32:05.553Z,97403.06
2022-11-18T06:34:35.616Z,97416.94
2022-11-18T06:37:16.924Z,97417.41
2022-11-18T06:39:44.039Z,97425.59
2022-11-18T06:42:10.944Z,97426.09
2022-11-18T06:44:37.911Z,97431.44
2022-11-18T06:47:04.834Z,97435.75
2022-11-18T06:49:31.588Z,97427.75
2022-11-18T06:51:58.303Z,97432.81
2022-11-18T06:54:25.052Z,97432.16
2022-11-18T06:56:51.874Z,97439.16
2022-11-18T06:59:24.085Z,97445.19
2022-11-18T07:01:53.418Z,97451.59
2022-11-18T07:04:20.832Z,97455.19
2022-11-18T07:06:47.721Z,97448.53
2022-11-18T07:09:14.495Z,97463.38
2022-11-18T07:11:41.750Z,97468.59
2022-11-18T07:14:09.390Z,97474.78
2022-11-18T07:16:37.035Z,97465.31
2022-11-18T07:19:12.055Z,97472.53
2022-11-18T07:21:39.275Z,97475.13
2022-11-18T07:24:07.817Z,97466.47
2022-11-18T07:26:35.640Z,97477.59
2022-11-18T07:29:02.567Z,97486.25
2022-11-18T07:31:29.669Z,97483.28
2022-11-18T07:33:56.496Z,97487.22
2022-11-18T07:36:34.028Z,97482.97
2022-11-18T07:39:02.609Z,97494.44
2022-11-18T07:41:30.268Z,97500.47
2022-11-18T07:44:00.844Z,97496.72
2022-11-18T07:46:33.355Z,97504.03
2022-11-18T07:49:02.467Z,97499.81
2022-11-18T07:51:31.206Z,97502.09
2022-11-18T07:53:58.158Z,97508.13
2022-11-18T07:56:25.088Z,97505.34
2022-11-18T07:58:56.432Z,97518.84
2022-11-18T08:01:24.975Z,97519.53
2022-11-18T08:03:52.324Z,97526.72
2022-11-18T08:06:19.590Z,97528.84
2022-11-18T08:08:47.011Z,97531.97
2022-11-18T08:11:21.615Z,97523.44
2022-11-18T08:13:49.279Z,97532.91
2022-11-18T08:16:18.754Z,97531.94
2022-11-18T08:18:46.056Z,97532.88
2022-11-18T08:21:13.336Z,97543.97
2022-11-18T08:23:42.338Z,97544.66
2022-11-18T08:26:15.808Z,97549.03
2022-11-18T08:28:43.724Z,97548.56
2022-11-18T08:31:12.677Z,97544.66
2022-11-18T08:33:39.851Z,97543.66
2022-11-18T08:36:18.720Z,97543.69
2022-11-18T08:38:45.853Z,97549.88
2022-11-18T08:41:18.093Z,97548.88
2022-11-18T08:43:44.993Z,97550.53
2022-11-18T08:46:11.841Z,97549.88
2022-11-18T08:48:38.627Z,97556.91
2022-11-18T08:51:05.546Z,97567.63
2022-11-18T08:53:33.079Z,97567.00
2022-11-18T08:56:01.090Z,97567.69
2022-11-18T08:58:28.238Z,97564.22
2022-11-18T09:00:55.449Z,97566.19
2022-11-18T09:03:23.095Z,97569.94
2022-11-18T09:05:50.135Z,97572.06
2022-11-18T09:08:17.281Z,97572.72
2022-11-18T09:10:44.084Z,97575.81
2022-11-18T09:13:47.836Z,97576.47
2022-11-18T09:16:01.303Z,97579.25
2022-11-18T09:18:28.080Z,97578.47
2022-11-18T09:20:59.330Z,97586.53
2022-11-18T09:23:26.214Z,97593.66
2022-11-18T09:26:00.757Z,97589.50
2022-11-18T09:28:27.594Z,97588.38
2022-11-18T09:30:55.343Z,97597.84
2022-11-18T09:33:22.921Z,97592.38
2022-11-18T09:35:49.825Z,97594.56
2022-11-18T09:38:17.209Z,97600.50
2022-11-18T09:40:53.638Z,97599.53
2022-11-18T09:43:37.920Z,97604.63
2022-11-18T09:46:21.276Z,97601.19
2022-11-18T09:49:08.809Z,97609.06
2022-11-18T09:51:40.391Z,97613.28
2022-11-18T09:54:12.582Z,97616.03
2022-11-18T09:56:41.498Z,97611.34
2022-11-18T09:59:12.492Z,97620.13
2022-11-18T10:01:39.416Z,97619.47
2022-11-18T10:04:06.495Z,97617.47
2022-11-18T10:06:34.315Z,97619.06
2022-11-18T10:09:40.131Z,97624.00
2022-11-18T10:12:37.693Z,97622.34
2022-11-18T10:15:38.057Z,97637.59
2022-11-18T10:18:52.901Z,97642.25
2022-11-18T10:21:46.106Z,97643.53
2022-11-18T10:24:18.178Z,97652.00
2022-11-18T10:26:45.424Z,97654.88
2022-11-18T10:29:12.352Z,97662.09
2022-11-18T10:31:40.920Z,97655.94
2022-11-18T10:34:11.091Z,97667.03
2022-11-18T10:36:38.185Z,97664.06
2022-11-18T10:39:15.798Z,97668.34
2022-11-18T10:41:50.514Z,97668.34
2022-11-18T10:44:40.830Z,97673.22
2022-11-18T10:47:26.578Z,97667.81
2022-11-18T10:49:55.692Z,97681.34
2022-11-18T10:52:22.893Z,97682.97
2022-11-18T10:55:07.989Z,97679.63
2022-11-18T10:57:43.505Z,97685.84
2022-11-18T11:00:37.395Z,97675.66
2022-11-18T11:03:45.826Z,97676.56
2022-11-18T11:06:27.805Z,97690.56
2022-11-18T11:09:03.793Z,97692.44
2022-11-18T11:11:33.483Z,97690.44
2022-11-18T11:14:32.675Z,97692.06
2022-11-18T11:17:06.842Z,97701.03
2022-11-18T11:19:36.287Z,97687.50
2022-11-18T11:22:03.116Z,97697.34
2022-11-18T11:24:29.994Z,97700.28
2022-11-18T11:30:25.683Z,97700.13
2022-11-18T11:33:21.742Z,97715.59
2022-11-18T11:36:17.063Z,97712.19
2022-11-18T11:39:25.887Z,97714.34
2022-11-18T11:42:37.412Z,97708.34
2022-11-18T11:45:24.379Z,97716.16
2022-11-18T11:48:20.607Z,97722.34
2022-11-18T11:51:03.348Z,97715.69
2022-11-18T11:54:22.486Z,97720.53
2022-11-18T11:57:16.895Z,97722.94
2022-11-18T12:00:04.930Z,97733.03
2022-11-18T12:02:54.217Z,97738.81
2022-11-18T12:05:34.478Z,97742.31
2022-11-18T12:08:03.375Z,97740.59
2022-11-18T12:10:31.864Z,97742.97
2022-11-18T12:13:26.089Z,97741.50
2022-11-18T12:16:15.912Z,97743.59
2022-11-18T12:18:51.115Z,97747.16
2022-11-18T12:21:48.518Z,97741.72
2022-11-18T12:24:36.633Z,97742.16
2022-11-18T12:27:38.841Z,97748.66
2022-11-18T12:30:06.439Z,97751.56
2022-11-18T12:32:43.067Z,97754.06
2022-11-18T12:35:28.015Z,97758.41
2022-11-18T12:37:59.239Z,97758.16
2022-11-18T12:40:39.169Z,97756.88
2022-11-18T12:43:49.052Z,97770.00
2022-11-18T12:46:48.031Z,97768.19
2022-11-18T12:49:44.099Z,97777.19
2022-11-18T12:52:29.164Z,97770.88
2022-11-18T12:54:57.168Z,97769.69
2022-11-18T12:57:32.986Z,97765.78
2022-11-18T13:00:33.466Z,97772.94
2022-11-18T13:03:01.681Z,97784.91
2022-11-18T13:05:33.953Z,97785.72
2022-11-18T13:08:13.434Z,97784.84
2022-11-18T13:11:15.241Z,97790.13
2022-11-18T13:13:42.748Z,97792.38
2022-11-18T13:16:43.190Z,97793.75
2022-11-18T13:19:10.385Z,97792.13
2022-11-18T13:21:55.914Z,97802.09
2022-11-18T13:24:23.170Z,97796.25
2022-11-18T13:26:55.097Z,97798.84
2022-11-18T13:29:38.766Z,97796.53
2022-11-18T13:32:21.215Z,97802.25
2022-11-18T13:34:50.812Z,97807.47
2022-11-18T13:37:34.308Z,97802.28
2022-11-18T13:40:01.383Z,97810.34
2022-11-18T13:42:30.372Z,97814.06
2022-11-18T13:44:59.001Z,97808.19
2022-11-18T13:47:47.950Z,97808.63
2022-11-18T13:50:23.104Z,97808.88
2022-11-18T13:52:53.448Z,97821.47
2022-11-18T13:55:23.226Z,97812.56
2022-11-18T13:57:52.447Z,97819.16
2022-11-18T14:00:30.351Z,97819.28
2022-11-18T14:03:12.116Z,97826.94
2022-11-18T14:05:40.478Z,97824.09
2022-11-18T14:08:18.802Z,97828.28
2022-11-18T14:10:45.756Z,97835.03
2022-11-18T14:13:44.381Z,97833.09
2022-11-18T14:16:41.335Z,97840.50
2022-11-18T14:19:26.996Z,97845.41
2022-11-18T14:21:53.708Z,97842.00
2022-11-18T14:24:27.418Z,97862.81
2022-11-18T14:26:54.286Z,97853.19
2022-11-18T14:29:23.333Z,97856.22
2022-11-18T14:32:15.250Z,97870.28
2022-11-18T14:34:42.249Z,97871.75
2022-11-18T14:37:13.488Z,97867.28
2022-11-18T14:39:40.702Z,97876.09
2022-11-18T14:42:11.569Z,97879.41
2022-11-18T14:44:38.332Z,97883.31
2022-11-18T14:47:22.985Z,97872.25
2022-11-18T14:49:49.644Z,97885.09
2022-11-18T14:52:16.622Z,97876.38
2022-11-18T14:54:43.379Z,97888.28
2022-11-18T14:57:16.526Z,97893.53
2022-11-18T14:59:44.603Z,97903.00
2022-11-18T15:02:16.464Z,97904.06
2022-11-18T15:07:22.826Z,97910.88
2022-11-18T15:09:50.985Z,97919.69
2022-11-18T15:12:17.847Z,97920.19
2022-11-18T15:14:44.611Z,97920.84
2022-11-18T15:17:12.522Z,97919.81
2022-11-18T15:19:40.915Z,97922.31
2022-11-18T15:22:08.233Z,97927.09
2022-11-18T15:24:35.043Z,97921.06
2022-11-18T15:27:05.504Z,97929.94
2022-11-18T15:29:32.633Z,97934.50
2022-11-18T15:32:00.331Z,97940.88
2022-11-18T15:34:27.215Z,97949.97
2022-11-18T15:36:53.993Z,97953.50
2022-11-18T15:39:20.700Z,97949.66
2022-11-18T15:41:47.523Z,97954.78
2022-11-18T15:44:14.306Z,97950.91
2022-11-18T15:46:41.088Z,97959.38
2022-11-18T15:49:13.596Z,97965.16
2022-11-18T15:51:40.842Z,97966.63
2022-11-18T15:54:07.846Z,97967.97
2022-11-18T15:56:35.382Z,97976.09
2022-11-18T15:59:11.646Z,97977.44
2022-11-18T16:01:40.862Z,97984.38
2022-11-18T16:04:10.093Z,97975.81
2022-11-18T16:06:37.708Z,97977.06
2022-11-18T16:09:05.596Z,97988.84
2022-11-18T16:11:51.383Z,97985.81
2022-11-18T16:14:20.036Z,97987.81
2022-11-18T16:16:48.604Z,97988.81
2022-11-18T16:19:17.850Z,97991.84
2022-11-18T16:21:47.548Z,97992.25
2022-11-18T16:24:19.160Z,98005.56
2022-11-18T16:26:46.345Z,98001.66
2022-11-18T16:29:16.071Z,98007.91
2022-11-18T16:31:44.403Z,98010.88
2022-11-18T16:34:30.153Z,98013.00
2022-11-18T16:36:58.287Z,98008.41
2022-11-18T16:39:27.284Z,98010.16
2022-11-18T16:42:08.516Z,98016.31
2022-11-18T16:44:37.020Z,98019.88
2022-11-18T16:47:13.717Z,98018.91
2022-11-18T16:49:41.758Z,98022.25
2022-11-18T16:52:09.479Z,98026.63
2022-11-18T16:54:42.921Z,98026.47
2022-11-18T16:57:12.076Z,98028.34
2022-11-18T16:59:39.539Z,98028.25
2022-11-18T17:02:06.753Z,98034.50
2022-11-18T17:04:36.419Z,98047.34
2022-11-18T17:07:03.516Z,98047.47
2022-11-18T17:09:30.474Z,98051.00
2022-11-18T17:11:58.919Z,98058.53
2022-11-18T17:14:25.931Z,98058.06
2022-11-18T17:16:53.331Z,98058.91
2022-11-18T17:19:22.280Z,98064.88
2022-11-18T17:21:50.435Z,98070.78
2022-11-18T17:24:19.620Z,98069.94
2022-11-18T17:26:47.838Z,98066.28
2022-11-18T17:29:15.847Z,98065.72
2022-11-18T17:31:43.131Z,98072.81
2022-11-18T17:34:12.326Z,98082.81
2022-11-18T17:36:39.131Z,98083.97
2022-11-18T17:39:05.946Z,98097.19
2022-11-18T17:41:51.721Z,98088.47
2022-11-18T17:44:19.298Z,98096.00
2022-11-18T17:46:47.603Z,98103.19
2022-11-18T17:49:19.239Z,98101.91
2022-11-18T17:51:46.343Z,98104.72
2022-11-18T17:54:14.390Z,98118.03
2022-11-18T17:56:41.544Z,98113.06
2022-11-18T17:59:08.480Z,98118.78
2022-11-18T18:01:36.044Z,98123.72
2022-11-18T18:04:03.464Z,98120.28
2022-11-18T18:06:30.626Z,98128.66
2022-11-18T18:08:58.482Z,98124.59
2022-11-18T18:11:26.656Z,98134.97
2022-11-18T18:14:12.592Z,98134.97
2022-11-18T18:16:42.405Z,98134.72
2022-11-18T18:19:11.354Z,98137.03
2022-11-18T18:21:38.509Z,98139.31
2022-11-18T18:24:06.153Z,98146.75
2022-11-18T18:26:33.438Z,98149.78
2022-11-18T18:29:01.045Z,98157.03
2022-11-18T18:31:28.435Z,98158.09
2022-11-18T18:33:56.152Z,98164.97
2022-11-18T18:36:25.568Z,98167.16
2022-11-18T18:38:52.874Z,98179.34
2022-11-18T18:41:21.884Z,98192.75
2022-11-18T18:43:49.639Z,98188.34
2022-11-18T18:46:34.321Z,98199.72
2022-11-18T18:49:12.451Z,98195.78
2022-11-18T18:51:45.168Z,98211.31
2022-11-18T18:54:14.926Z,98212.28
2022-11-18T18:56:42.217Z,98212.44
2022-11-18T18:59:09.721Z,98216.53
2022-11-18T19:01:37.432Z,98214.69
2022-11-18T19:04:06.475Z,98219.25
2022-11-18T19:06:58.456Z,98212.22
2022-11-18T19:09:22.775Z,98196.88
2022-11-18T19:12:08.368Z,98206.63
2022-11-18T19:14:35.681Z,98205.41
2022-11-18T19:17:09.616Z,98211.38
2022-11-18T19:19:57.168Z,98213.78
2022-11-18T19:22:24.386Z,98217.38
2022-11-18T19:24:51.929Z,98227.09
2022-11-18T19:27:19.894Z,98218.41
2022-11-18T19:29:47.324Z,98217.50
2022-11-18T19:32:14.835Z,98232.91
2022-11-18T19:34:42.054Z,98221.63
2022-11-18T19:37:08.947Z,98225.91
2022-11-18T19:39:35.865Z,98225.69
2022-11-18T19:42:05.482Z,98230.44
2022-11-18T19:44:38.704Z,98237.25
2022-11-18T19:47:05.666Z,98247.06
2022-11-18T19:49:32.539Z,98245.94
2022-11-18T19:51:59.385Z,98234.56
2022-11-18T19:54:26.436Z,98241.09
2022-11-18T19:56:53.201Z,98241.19
2022-11-18T19:59:20.233Z,98254.94
2022-11-18T20:01:47.332Z,98246.97
2022-11-18T20:04:14.554Z,98251.00
2022-11-18T20:06:41.413Z,98251.53
2022-11-18T20:09:10.051Z,98242.44
2022-11-18T20:11:38.546Z,98245.66
2022-11-18T20:14:06.117Z,98243.69
2022-11-18T20:16:33.279Z,98247.91
2022-11-18T20:19:06.338Z,98256.00
2022-11-18T20:21:36.190Z,98251.63
2022-11-18T20:24:04.923Z,98252.56
2022-11-18T20:26:37.813Z,98252.38
2022-11-18T20:29:06.405Z,98255.97
2022-11-18T20:31:34.787Z,98261.56
2022-11-18T20:34:01.979Z,98270.06
2022-11-18T20:36:31.670Z,98269.63
2022-11-18T20:39:07.156Z,98276.78
2022-11-18T20:41:36.524Z,98267.47
2022-11-18T20:44:04.525Z,98268.81
2022-11-18T20:46:31.609Z,98272.41
2022-11-18T20:48:59.027Z,98275.41
2022-11-18T20:51:27.591Z,98274.69
2022-11-18T20:53:55.428Z,98284.09
2022-11-18T20:56:25.790Z,98280.59
2022-11-18T20:58:52.966Z,98281.94
2022-11-18T21:01:22.426Z,98280.16
2022-11-18T21:03:54.988Z,98281.22
2022-11-18T21:06:23.611Z,98288.34
2022-11-18T21:08:55.561Z,98288.75
2022-11-18T21:11:22.704Z,98282.94
2022-11-18T21:14:08.142Z,98290.69
2022-11-18T21:16:34.970Z,98292.25
2022-11-18T21:19:01.885Z,98292.28
2022-11-18T21:21:49.226Z,98288.63
2022-11-18T21:24:20.998Z,98287.56
2022-11-18T21:26:49.594Z,98294.16
2022-11-18T21:29:17.916Z,98297.66
2022-11-18T21:31:45.993Z,98298.56
2022-11-18T21:34:13.200Z,98298.66
2022-11-18T21:36:44.980Z,98301.94
2022-11-18T21:39:14.564Z,98303.03
2022-11-18T21:41:41.546Z,98300.94
2022-11-18T21:44:10.501Z,98306.09
2022-11-18T21:46:39.225Z,98302.03
2022-11-18T21:49:06.728Z,98309.25
2022-11-18T21:51:34.710Z,98312.72
2022-11-18T21:54:02.176Z,98312.91
2022-11-18T21:56:33.690Z,98308.72
2022-11-18T21:59:01.493Z,98310.81
2022-11-18T22:01:33.943Z,98321.41
2022-11-18T22:04:04.473Z,98322.75
2022-11-18T22:06:33.983Z,98325.41
2022-11-18T22:09:01.912Z,98316.41
2022-11-18T22:11:30.794Z,98318.38
2022-11-18T22:13:58.167Z,98320.97
2022-11-18T22:16:26.045Z,98315.47
2022-11-18T22:18:59.081Z,98318.00
2022-11-18T22:21:28.254Z,98324.69
2022-11-18T22:24:00.021Z,98322.97
2022-11-18T22:26:27.503Z,98327.69
2022-11-18T22:28:56.613Z,98320.34
2022-11-18T22:31:24.487Z,98323.44
2022-11-18T22:33:52.137Z,98331.31
2022-11-18T22:36:21.549Z,98330.41
2022-11-18T22:38:48.755Z,98330.94
2022-11-18T22:41:44.789Z,98326.53
2022-11-18T22:44:13.932Z,98340.78
2022-11-18T22:46:42.165Z,98342.97
2022-11-18T22:49:10.673Z,98339.09
2022-11-18T22:51:38.302Z,98342.44
2022-11-18T22:56:54.403Z,98340.03
2022-11-18T22:59:21.714Z,98345.69
2022-11-18T23:01:51.436Z,98353.13
2022-11-18T23:04:18.379Z,98354.34
2022-11-18T23:06:45.442Z,98355.13
2022-11-18T23:09:12.713Z,98363.44
2022-11-18T23:11:58.296Z,98365.09
2022-11-18T23:14:25.332Z,98362.34
2022-11-18T23:16:52.278Z,98365.41
2022-11-18T23:19:20.155Z,98376.13
2022-11-18T23:21:47.268Z,98369.78
2022-11-18T23:24:15.964Z,98373.66
2022-11-18T23:26:43.772Z,98373.75
2022-11-18T23:29:11.699Z,98372.91
2022-11-18T23:31:41.196Z,98367.81
2022-11-18T23:34:08.182Z,98369.47
2022-11-18T23:36:34.998Z,98373.00
2022-11-18T23:39:01.986Z,98372.53
2022-11-18T23:41:28.907Z,98381.69
2022-11-18T23:43:56.029Z,98367.75
2022-11-18T23:46:22.979Z,98382.81
2022-11-18T23:48:50.226Z,98377.69
2022-11-18T23:51:19.047Z,98386.88
2022-11-18T23:53:48.252Z,98392.03
2022-11-18T23:56:17.059Z,98400.28
2022-11-18T23:58:48.496Z,98394.53
